sensor_id;sensor_type;location;lat;lon;timestamp;pressure;altitude;pressure_sealevel;temperature
54746;BMP180;40640;48.130;11.356;2022-11-23T00:02:56;94318.00;;;7.30
54746;BMP180;40640;48.130;11.356;2022-11-23T00:06:59;94309.00;;;7.30
54746;BMP180;40640;48.130;11.356;2022-11-23T00:11:03;94316.00;;;7.40
54746;BMP180;40640;48.130;11.356;2022-11-23T00:15:07;94320.00;;;7.40
54746;BMP180;40640;48.130;11.356;2022-11-23T00:19:10;94320.00;;;7.30
54746;BMP180;40640;48.130;11.356;2022-11-23T00:23:12;94316.00;;;7.30
54746;BMP180;40640;48.130;11.356;2022-11-23T00:27:16;94324.00;;;7.30
54746;BMP180;40640;48.130;11.356;2022-11-23T00:31:20;94317.00;;;7.30
54746;BMP180;40640;48.130;11.356;2022-11-23T00:35:25;94321.00;;;7.30
54746;BMP180;40640;48.130;11.356;2022-11-23T00:39:28;94319.00;;;7.30
54746;BMP180;40640;48.130;11.356;2022-11-23T00:43:32;94314.00;;;7.30
54746;BMP180;40640;48.130;11.356;2022-11-23T00:47:35;94318.00;;;7.30
54746;BMP180;40640;48.130;11.356;2022-11-23T00:51:38;94322.00;;;7.30
54746;BMP180;40640;48.130;11.356;2022-11-23T00:55:50;94307.00;;;7.30
54746;BMP180;40640;48.130;11.356;2022-11-23T00:59:54;94313.00;;;7.30
54746;BMP180;40640;48.130;11.356;2022-11-23T01:04:00;94309.00;;;7.20
54746;BMP180;40640;48.130;11.356;2022-11-23T01:08:03;94315.00;;;7.20
54746;BMP180;40640;48.130;11.356;2022-11-23T01:12:06;94310.00;;;7.30
54746;BMP180;40640;48.130;11.356;2022-11-23T01:16:13;94317.00;;;7.20
54746;BMP180;40640;48.130;11.356;2022-11-23T01:20:24;94321.00;;;7.30
54746;BMP180;40640;48.130;11.356;2022-11-23T01:24:27;94314.00;;;7.10
54746;BMP180;40640;48.130;11.356;2022-11-23T01:28:29;94313.00;;;7.10
54746;BMP180;40640;48.130;11.356;2022-11-23T01:32:33;94319.00;;;7.10
54746;BMP180;40640;48.130;11.356;2022-11-23T01:36:36;94326.00;;;7.00
54746;BMP180;40640;48.130;11.356;2022-11-23T01:40:40;94335.00;;;6.90
54746;BMP180;40640;48.130;11.356;2022-11-23T01:44:43;94334.00;;;6.80
54746;BMP180;40640;48.130;11.356;2022-11-23T01:48:50;94330.00;;;6.70
54746;BMP180;40640;48.130;11.356;2022-11-23T01:52:56;94340.00;;;6.70
54746;BMP180;40640;48.130;11.356;2022-11-23T01:57:04;94341.00;;;6.60
54746;BMP180;40640;48.130;11.356;2022-11-23T02:01:07;94349.00;;;6.60
54746;BMP180;40640;48.130;11.356;2022-11-23T02:05:13;94339.00;;;6.50
54746;BMP180;40640;48.130;11.356;2022-11-23T02:09:18;94349.00;;;6.50
54746;BMP180;40640;48.130;11.356;2022-11-23T02:13:24;94342.00;;;6.50
54746;BMP180;40640;48.130;11.356;2022-11-23T02:17:27;94345.00;;;6.50
54746;BMP180;40640;48.130;11.356;2022-11-23T02:21:31;94347.00;;;6.40
54746;BMP180;40640;48.130;11.356;2022-11-23T02:25:40;94343.00;;;6.40
54746;BMP180;40640;48.130;11.356;2022-11-23T02:29:47;94347.00;;;6.40
54746;BMP180;40640;48.130;11.356;2022-11-23T02:33:54;94351.00;;;6.40
54746;BMP180;40640;48.130;11.356;2022-11-23T02:37:58;94346.00;;;6.30
54746;BMP180;40640;48.130;11.356;2022-11-23T02:42:01;94348.00;;;6.30
54746;BMP180;40640;48.130;11.356;2022-11-23T02:46:09;94343.00;;;6.30
54746;BMP180;40640;48.130;11.356;2022-11-23T02:50:13;94344.00;;;6.40
54746;BMP180;40640;48.130;11.356;2022-11-23T02:54:17;94327.00;;;6.20
54746;BMP180;40640;48.130;11.356;2022-11-23T02:58:20;94333.00;;;6.20
54746;BMP180;40640;48.130;11.356;2022-11-23T03:02:24;94340.00;;;6.10
54746;BMP180;40640;48.130;11.356;2022-11-23T03:06:27;94340.00;;;6.10
54746;BMP180;40640;48.130;11.356;2022-11-23T03:10:30;94336.00;;;6.00
54746;BMP180;40640;48.130;11.356;2022-11-23T03:14:34;94335.00;;;5.90
54746;BMP180;40640;48.130;11.356;2022-11-23T03:18:40;94339.00;;;6.00
54746;BMP180;40640;48.130;11.356;2022-11-23T03:22:44;94330.00;;;5.90
54746;BMP180;40640;48.130;11.356;2022-11-23T03:26:51;94344.00;;;5.90
54746;BMP180;40640;48.130;11.356;2022-11-23T03:30:54;94341.00;;;5.90
54746;BMP180;40640;48.130;11.356;2022-11-23T03:34:59;94340.00;;;5.90
54746;BMP180;40640;48.130;11.356;2022-11-23T03:39:03;94340.00;;;5.90
54746;BMP180;40640;48.130;11.356;2022-11-23T03:43:43;94338.00;;;6.00
54746;BMP180;40640;48.130;11.356;2022-11-23T03:47:46;94337.00;;;6.00
54746;BMP180;40640;48.130;11.356;2022-11-23T03:51:50;94333.00;;;5.90
54746;BMP180;40640;48.130;11.356;2022-11-23T03:55:53;94334.00;;;5.90
54746;BMP180;40640;48.130;11.356;2022-11-23T04:00:00;94324.00;;;5.80
54746;BMP180;40640;48.130;11.356;2022-11-23T04:04:13;94321.00;;;5.70
54746;BMP180;40640;48.130;11.356;2022-11-23T04:08:36;94326.00;;;5.70
54746;BMP180;40640;48.130;11.356;2022-11-23T04:12:44;94321.00;;;5.60
54746;BMP180;40640;48.130;11.356;2022-11-23T04:16:48;94323.00;;;5.70
54746;BMP180;40640;48.130;11.356;2022-11-23T04:20:51;94337.00;;;5.60
54746;BMP180;40640;48.130;11.356;2022-11-23T04:24:55;94334.00;;;5.60
54746;BMP180;40640;48.130;11.356;2022-11-23T04:28:58;94325.00;;;5.60
54746;BMP180;40640;48.130;11.356;2022-11-23T04:33:01;94332.00;;;5.60
54746;BMP180;40640;48.130;11.356;2022-11-23T04:37:04;94325.00;;;5.50
54746;BMP180;40640;48.130;11.356;2022-11-23T04:41:16;94324.00;;;5.60
54746;BMP180;40640;48.130;11.356;2022-11-23T04:45:19;94322.00;;;5.60
54746;BMP180;40640;48.130;11.356;2022-11-23T04:49:22;94329.00;;;5.70
54746;BMP180;40640;48.130;11.356;2022-11-23T04:53:25;94318.00;;;5.60
54746;BMP180;40640;48.130;11.356;2022-11-23T04:57:30;94323.00;;;5.50
54746;BMP180;40640;48.130;11.356;2022-11-23T05:01:33;94321.00;;;5.60
54746;BMP180;40640;48.130;11.356;2022-11-23T05:05:56;94318.00;;;5.60
54746;BMP180;40640;48.130;11.356;2022-11-23T05:10:02;94306.00;;;5.60
54746;BMP180;40640;48.130;11.356;2022-11-23T05:14:09;94308.00;;;5.60
54746;BMP180;40640;48.130;11.356;2022-11-23T05:18:13;94307.00;;;5.60
54746;BMP180;40640;48.130;11.356;2022-11-23T05:22:17;94306.00;;;5.70
54746;BMP180;40640;48.130;11.356;2022-11-23T05:26:21;94300.00;;;5.60
54746;BMP180;40640;48.130;11.356;2022-11-23T05:30:25;94303.00;;;5.50
54746;BMP180;40640;48.130;11.356;2022-11-23T05:34:29;94299.00;;;5.50
54746;BMP180;40640;48.130;11.356;2022-11-23T05:38:33;94289.00;;;5.50
54746;BMP180;40640;48.130;11.356;2022-11-23T05:42:41;94301.00;;;5.50
54746;BMP180;40640;48.130;11.356;2022-11-23T05:46:51;94307.00;;;5.50
54746;BMP180;40640;48.130;11.356;2022-11-23T05:50:54;94298.00;;;5.50
54746;BMP180;40640;48.130;11.356;2022-11-23T05:55:09;94298.00;;;5.50
54746;BMP180;40640;48.130;11.356;2022-11-23T05:59:12;94289.00;;;5.50
54746;BMP180;40640;48.130;11.356;2022-11-23T06:03:20;94302.00;;;5.60
54746;BMP180;40640;48.130;11.356;2022-11-23T06:07:23;94297.00;;;5.70
54746;BMP180;40640;48.130;11.356;2022-11-23T06:11:35;94306.00;;;5.70
54746;BMP180;40640;48.130;11.356;2022-11-23T06:15:43;94303.00;;;5.70
54746;BMP180;40640;48.130;11.356;2022-11-23T06:19:55;94295.00;;;5.70
54746;BMP180;40640;48.130;11.356;2022-11-23T06:23:58;94300.00;;;5.70
54746;BMP180;40640;48.130;11.356;2022-11-23T06:28:04;94291.00;;;5.80
54746;BMP180;40640;48.130;11.356;2022-11-23T06:32:14;94303.00;;;5.70
54746;BMP180;40640;48.130;11.356;2022-11-23T06:36:19;94300.00;;;5.80
54746;BMP180;40640;48.130;11.356;2022-11-23T06:40:25;94302.00;;;5.80
54746;BMP180;40640;48.130;11.356;2022-11-23T06:44:29;94312.00;;;5.80
54746;BMP180;40640;48.130;11.356;2022-11-23T06:48:32;94305.00;;;5.90
54746;BMP180;40640;48.130;11.356;2022-11-23T06:52:37;94312.00;;;5.70
54746;BMP180;40640;48.130;11.356;2022-11-23T06:56:40;94308.00;;;5.70
54746;BMP180;40640;48.130;11.356;2022-11-23T07:00:44;94306.00;;;5.70
54746;BMP180;40640;48.130;11.356;2022-11-23T07:04:49;94309.00;;;5.80
54746;BMP180;40640;48.130;11.356;2022-11-23T07:08:55;94313.00;;;5.70
54746;BMP180;40640;48.130;11.356;2022-11-23T07:13:18;94318.00;;;5.80
54746;BMP180;40640;48.130;11.356;2022-11-23T07:17:20;94330.00;;;5.80
54746;BMP180;40640;48.130;11.356;2022-11-23T07:21:23;94334.00;;;5.80
54746;BMP180;40640;48.130;11.356;2022-11-23T07:25:28;94338.00;;;5.80
54746;BMP180;40640;48.130;11.356;2022-11-23T07:29:33;94347.00;;;5.90
54746;BMP180;40640;48.130;11.356;2022-11-23T07:33:36;94344.00;;;5.90
54746;BMP180;40640;48.130;11.356;2022-11-23T07:37:39;94352.00;;;6.00
54746;BMP180;40640;48.130;11.356;2022-11-23T07:41:43;94347.00;;;6.00
54746;BMP180;40640;48.130;11.356;2022-11-23T07:45:56;94356.00;;;6.10
54746;BMP180;40640;48.130;11.356;2022-11-23T07:49:59;94361.00;;;6.10
54746;BMP180;40640;48.130;11.356;2022-11-23T07:54:01;94362.00;;;6.00
54746;BMP180;40640;48.130;11.356;2022-11-23T07:58:05;94371.00;;;6.10
54746;BMP180;40640;48.130;11.356;2022-11-23T08:02:14;94367.00;;;6.10
54746;BMP180;40640;48.130;11.356;2022-11-23T08:06:18;94373.00;;;6.20
54746;BMP180;40640;48.130;11.356;2022-11-23T08:10:21;94374.00;;;6.30
54746;BMP180;40640;48.130;11.356;2022-11-23T08:14:25;94380.00;;;6.50
54746;BMP180;40640;48.130;11.356;2022-11-23T08:18:28;94377.00;;;6.60
54746;BMP180;40640;48.130;11.356;2022-11-23T08:22:30;94387.00;;;6.60
54746;BMP180;40640;48.130;11.356;2022-11-23T08:26:33;94383.00;;;6.70
54746;BMP180;40640;48.130;11.356;2022-11-23T08:30:38;94373.00;;;6.80
54746;BMP180;40640;48.130;11.356;2022-11-23T08:34:41;94382.00;;;6.90
54746;BMP180;40640;48.130;11.356;2022-11-23T08:38:44;94383.00;;;7.10
54746;BMP180;40640;48.130;11.356;2022-11-23T08:42:47;94388.00;;;7.30
54746;BMP180;40640;48.130;11.356;2022-11-23T08:46:51;94390.00;;;7.40
54746;BMP180;40640;48.130;11.356;2022-11-23T08:50:56;94390.00;;;7.50
54746;BMP180;40640;48.130;11.356;2022-11-23T08:54:59;94396.00;;;7.60
54746;BMP180;40640;48.130;11.356;2022-11-23T08:59:02;94391.00;;;7.70
54746;BMP180;40640;48.130;11.356;2022-11-23T09:03:06;94385.00;;;7.90
54746;BMP180;40640;48.130;11.356;2022-11-23T09:07:09;94384.00;;;8.00
54746;BMP180;40640;48.130;11.356;2022-11-23T09:11:12;94379.00;;;8.00
54746;BMP180;40640;48.130;11.356;2022-11-23T09:15:15;94385.00;;;7.80
54746;BMP180;40640;48.130;11.356;2022-11-23T09:19:20;94373.00;;;7.70
54746;BMP180;40640;48.130;11.356;2022-11-23T09:23:23;94374.00;;;7.90
54746;BMP180;40640;48.130;11.356;2022-11-23T09:27:27;94378.00;;;8.00
54746;BMP180;40640;48.130;11.356;2022-11-23T09:31:30;94380.00;;;9.20
54746;BMP180;40640;48.130;11.356;2022-11-23T09:35:34;94386.00;;;11.00
54746;BMP180;40640;48.130;11.356;2022-11-23T09:39:44;94387.00;;;13.00
54746;BMP180;40640;48.130;11.356;2022-11-23T09:43:54;94397.00;;;14.30
54746;BMP180;40640;48.130;11.356;2022-11-23T09:48:13;94399.00;;;15.60
54746;BMP180;40640;48.130;11.356;2022-11-23T09:52:23;94410.00;;;17.00
54746;BMP180;40640;48.130;11.356;2022-11-23T09:56:28;94399.00;;;17.50
54746;BMP180;40640;48.130;11.356;2022-11-23T10:00:36;94410.00;;;18.20
54746;BMP180;40640;48.130;11.356;2022-11-23T10:04:39;94406.00;;;19.10
54746;BMP180;40640;48.130;11.356;2022-11-23T10:08:51;94408.00;;;19.60
54746;BMP180;40640;48.130;11.356;2022-11-23T10:13:07;94406.00;;;20.10
54746;BMP180;40640;48.130;11.356;2022-11-23T10:17:16;94405.00;;;21.10
54746;BMP180;40640;48.130;11.356;2022-11-23T10:21:28;94395.00;;;21.20
54746;BMP180;40640;48.130;11.356;2022-11-23T10:25:38;94395.00;;;22.10
54746;BMP180;40640;48.130;11.356;2022-11-23T10:29:42;94397.00;;;22.90
54746;BMP180;40640;48.130;11.356;2022-11-23T10:33:53;94380.00;;;23.40
54746;BMP180;40640;48.130;11.356;2022-11-23T10:38:07;94392.00;;;22.10
54746;BMP180;40640;48.130;11.356;2022-11-23T10:42:24;94379.00;;;22.20
54746;BMP180;40640;48.130;11.356;2022-11-23T10:46:36;94381.00;;;22.60
54746;BMP180;40640;48.130;11.356;2022-11-23T10:50:39;94379.00;;;23.60
54746;BMP180;40640;48.130;11.356;2022-11-23T10:54:50;94383.00;;;22.30
54746;BMP180;40640;48.130;11.356;2022-11-23T10:58:55;94376.00;;;21.10
54746;BMP180;40640;48.130;11.356;2022-11-23T11:02:58;94390.00;;;22.20
54746;BMP180;40640;48.130;11.356;2022-11-23T11:07:18;94385.00;;;23.20
54746;BMP180;40640;48.130;11.356;2022-11-23T11:11:23;94385.00;;;22.80
54746;BMP180;40640;48.130;11.356;2022-11-23T11:15:28;94381.00;;;22.70
54746;BMP180;40640;48.130;11.356;2022-11-23T11:19:32;94383.00;;;23.40
54746;BMP180;40640;48.130;11.356;2022-11-23T11:23:38;94384.00;;;24.10
54746;BMP180;40640;48.130;11.356;2022-11-23T11:27:50;94384.00;;;24.40
54746;BMP180;40640;48.130;11.356;2022-11-23T11:31:58;94374.00;;;24.10
54746;BMP180;40640;48.130;11.356;2022-11-23T11:36:05;94382.00;;;24.10
54746;BMP180;40640;48.130;11.356;2022-11-23T11:40:16;94382.00;;;23.90
54746;BMP180;40640;48.130;11.356;2022-11-23T11:44:22;94379.00;;;22.60
54746;BMP180;40640;48.130;11.356;2022-11-23T11:48:29;94370.00;;;21.40
54746;BMP180;40640;48.130;11.356;2022-11-23T11:52:38;94369.00;;;21.50
54746;BMP180;40640;48.130;11.356;2022-11-23T11:56:44;94368.00;;;21.60
54746;BMP180;40640;48.130;11.356;2022-11-23T12:00:49;94360.00;;;22.30
54746;BMP180;40640;48.130;11.356;2022-11-23T12:05:07;94364.00;;;22.00
54746;BMP180;40640;48.130;11.356;2022-11-23T12:09:15;94364.00;;;20.60
54746;BMP180;40640;48.130;11.356;2022-11-23T12:13:21;94357.00;;;19.50
54746;BMP180;40640;48.130;11.356;2022-11-23T12:17:56;94355.00;;;19.40
54746;BMP180;40640;48.130;11.356;2022-11-23T12:22:19;94347.00;;;19.20
54746;BMP180;40640;48.130;11.356;2022-11-23T12:26:31;94347.00;;;18.40
54746;BMP180;40640;48.130;11.356;2022-11-23T12:30:42;94356.00;;;18.60
54746;BMP180;40640;48.130;11.356;2022-11-23T12:35:03;94360.00;;;18.80
54746;BMP180;40640;48.130;11.356;2022-11-23T12:39:28;94352.00;;;18.90
54746;BMP180;40640;48.130;11.356;2022-11-23T12:43:46;94354.00;;;18.30
54746;BMP180;40640;48.130;11.356;2022-11-23T12:47:58;94347.00;;;17.40
54746;BMP180;40640;48.130;11.356;2022-11-23T12:52:15;94353.00;;;17.20
54746;BMP180;40640;48.130;11.356;2022-11-23T12:56:40;94348.00;;;18.20
54746;BMP180;40640;48.130;11.356;2022-11-23T13:00:50;94345.00;;;18.60
54746;BMP180;40640;48.130;11.356;2022-11-23T13:05:16;94345.00;;;19.20
54746;BMP180;40640;48.130;11.356;2022-11-23T13:09:28;94338.00;;;19.60
54746;BMP180;40640;48.130;11.356;2022-11-23T13:13:59;94347.00;;;19.30
54746;BMP180;40640;48.130;11.356;2022-11-23T13:18:09;94340.00;;;19.60
54746;BMP180;40640;48.130;11.356;2022-11-23T13:22:16;94347.00;;;19.30
54746;BMP180;40640;48.130;11.356;2022-11-23T13:26:21;94347.00;;;18.90
54746;BMP180;40640;48.130;11.356;2022-11-23T13:30:31;94341.00;;;19.10
54746;BMP180;40640;48.130;11.356;2022-11-23T13:34:54;94344.00;;;18.70
54746;BMP180;40640;48.130;11.356;2022-11-23T13:38:57;94338.00;;;18.30
54746;BMP180;40640;48.130;11.356;2022-11-23T13:43:13;94333.00;;;18.10
54746;BMP180;40640;48.130;11.356;2022-11-23T13:47:19;94329.00;;;17.80
54746;BMP180;40640;48.130;11.356;2022-11-23T13:51:24;94328.00;;;17.50
54746;BMP180;40640;48.130;11.356;2022-11-23T13:55:32;94321.00;;;17.30
54746;BMP180;40640;48.130;11.356;2022-11-23T13:59:36;94329.00;;;17.00
54746;BMP180;40640;48.130;11.356;2022-11-23T14:03:51;94322.00;;;16.80
54746;BMP180;40640;48.130;11.356;2022-11-23T14:07:58;94325.00;;;16.10
54746;BMP180;40640;48.130;11.356;2022-11-23T14:12:11;94322.00;;;15.70
54746;BMP180;40640;48.130;11.356;2022-11-23T14:16:23;94327.00;;;15.30
54746;BMP180;40640;48.130;11.356;2022-11-23T14:20:47;94323.00;;;15.10
54746;BMP180;40640;48.130;11.356;2022-11-23T14:25:07;94338.00;;;15.10
54746;BMP180;40640;48.130;11.356;2022-11-23T14:29:25;94337.00;;;14.80
54746;BMP180;40640;48.130;11.356;2022-11-23T14:33:34;94340.00;;;14.80
54746;BMP180;40640;48.130;11.356;2022-11-23T14:37:47;94328.00;;;14.40
54746;BMP180;40640;48.130;11.356;2022-11-23T14:41:55;94337.00;;;14.40
54746;BMP180;40640;48.130;11.356;2022-11-23T14:46:00;94333.00;;;13.90
54746;BMP180;40640;48.130;11.356;2022-11-23T14:50:05;94332.00;;;13.70
54746;BMP180;40640;48.130;11.356;2022-11-23T14:54:10;94336.00;;;13.40
54746;BMP180;40640;48.130;11.356;2022-11-23T14:58:14;94339.00;;;13.20
54746;BMP180;40640;48.130;11.356;2022-11-23T15:02:20;94334.00;;;13.20
54746;BMP180;40640;48.130;11.356;2022-11-23T15:06:26;94339.00;;;12.80
54746;BMP180;40640;48.130;11.356;2022-11-23T15:10:38;94332.00;;;12.50
54746;BMP180;40640;48.130;11.356;2022-11-23T15:14:42;94325.00;;;12.40
54746;BMP180;40640;48.130;11.356;2022-11-23T15:18:45;94310.00;;;12.20
54746;BMP180;40640;48.130;11.356;2022-11-23T15:22:48;94323.00;;;12.10
54746;BMP180;40640;48.130;11.356;2022-11-23T15:26:54;94331.00;;;12.10
54746;BMP180;40640;48.130;11.356;2022-11-23T15:30:59;94318.00;;;11.90
54746;BMP180;40640;48.130;11.356;2022-11-23T15:35:05;94323.00;;;11.80
54746;BMP180;40640;48.130;11.356;2022-11-23T15:39:14;94321.00;;;11.70
54746;BMP180;40640;48.130;11.356;2022-11-23T15:43:19;94319.00;;;11.60
54746;BMP180;40640;48.130;11.356;2022-11-23T15:47:24;94320.00;;;11.40
54746;BMP180;40640;48.130;11.356;2022-11-23T15:51:29;94320.00;;;11.30
54746;BMP180;40640;48.130;11.356;2022-11-23T15:55:33;94320.00;;;11.10
54746;BMP180;40640;48.130;11.356;2022-11-23T15:59:41;94316.00;;;11.00
54746;BMP180;40640;48.130;11.356;2022-11-23T16:03:48;94311.00;;;10.70
54746;BMP180;40640;48.130;11.356;2022-11-23T16:07:54;94313.00;;;10.70
54746;BMP180;40640;48.130;11.356;2022-11-23T16:11:58;94311.00;;;10.70
54746;BMP180;40640;48.130;11.356;2022-11-23T16:16:04;94321.00;;;10.50
54746;BMP180;40640;48.130;11.356;2022-11-23T16:24:18;94332.00;;;10.30
54746;BMP180;40640;48.130;11.356;2022-11-23T16:28:26;94326.00;;;10.10
54746;BMP180;40640;48.130;11.356;2022-11-23T16:32:31;94317.00;;;10.00
54746;BMP180;40640;48.130;11.356;2022-11-23T16:36:34;94331.00;;;9.80
54746;BMP180;40640;48.130;11.356;2022-11-23T16:40:37;94324.00;;;9.70
54746;BMP180;40640;48.130;11.356;2022-11-23T16:44:40;94320.00;;;9.60
54746;BMP180;40640;48.130;11.356;2022-11-23T16:48:45;94306.00;;;9.50
54746;BMP180;40640;48.130;11.356;2022-11-23T16:52:48;94312.00;;;9.30
54746;BMP180;40640;48.130;11.356;2022-11-23T16:56:51;94322.00;;;9.10
54746;BMP180;40640;48.130;11.356;2022-11-23T17:00:54;94325.00;;;9.00
54746;BMP180;40640;48.130;11.356;2022-11-23T17:04:58;94321.00;;;9.10
54746;BMP180;40640;48.130;11.356;2022-11-23T17:09:01;94331.00;;;9.10
54746;BMP180;40640;48.130;11.356;2022-11-23T17:13:11;94320.00;;;9.10
54746;BMP180;40640;48.130;11.356;2022-11-23T17:17:18;94317.00;;;9.00
54746;BMP180;40640;48.130;11.356;2022-11-23T17:21:23;94317.00;;;8.90
54746;BMP180;40640;48.130;11.356;2022-11-23T17:25:26;94317.00;;;8.90
54746;BMP180;40640;48.130;11.356;2022-11-23T17:29:30;94321.00;;;8.90
54746;BMP180;40640;48.130;11.356;2022-11-23T17:33:39;94330.00;;;8.80
54746;BMP180;40640;48.130;11.356;2022-11-23T17:37:43;94335.00;;;8.70
54746;BMP180;40640;48.130;11.356;2022-11-23T17:41:46;94340.00;;;8.70
54746;BMP180;40640;48.130;11.356;2022-11-23T17:45:49;94342.00;;;8.60
54746;BMP180;40640;48.130;11.356;2022-11-23T17:49:52;94333.00;;;8.50
54746;BMP180;40640;48.130;11.356;2022-11-23T17:53:56;94337.00;;;8.50
54746;BMP180;40640;48.130;11.356;2022-11-23T17:57:59;94327.00;;;8.50
54746;BMP180;40640;48.130;11.356;2022-11-23T18:02:02;94339.00;;;8.40
54746;BMP180;40640;48.130;11.356;2022-11-23T18:06:05;94353.00;;;8.40
54746;BMP180;40640;48.130;11.356;2022-11-23T18:10:11;94340.00;;;8.20
54746;BMP180;40640;48.130;11.356;2022-11-23T18:14:14;94353.00;;;8.20
54746;BMP180;40640;48.130;11.356;2022-11-23T18:18:18;94353.00;;;8.20
54746;BMP180;40640;48.130;11.356;2022-11-23T18:22:21;94363.00;;;8.10
54746;BMP180;40640;48.130;11.356;2022-11-23T18:26:25;94366.00;;;8.20
54746;BMP180;40640;48.130;11.356;2022-11-23T18:30:30;94385.00;;;8.10
54746;BMP180;40640;48.130;11.356;2022-11-23T18:34:33;94385.00;;;8.20
54746;BMP180;40640;48.130;11.356;2022-11-23T18:38:36;94377.00;;;8.00
54746;BMP180;40640;48.130;11.356;2022-11-23T18:42:40;94395.00;;;8.10
54746;BMP180;40640;48.130;11.356;2022-11-23T18:46:43;94408.00;;;8.20
54746;BMP180;40640;48.130;11.356;2022-11-23T18:50:46;94407.00;;;8.00
54746;BMP180;40640;48.130;11.356;2022-11-23T18:54:49;94427.00;;;8.00
54746;BMP180;40640;48.130;11.356;2022-11-23T18:58:53;94423.00;;;8.00
54746;BMP180;40640;48.130;11.356;2022-11-23T19:02:57;94448.00;;;8.00
54746;BMP180;40640;48.130;11.356;2022-11-23T19:07:00;94461.00;;;8.20
54746;BMP180;40640;48.130;11.356;2022-11-23T19:11:04;94477.00;;;8.30
54746;BMP180;40640;48.130;11.356;2022-11-23T19:15:09;94476.00;;;7.90
54746;BMP180;40640;48.130;11.356;2022-11-23T19:19:12;94484.00;;;7.80
54746;BMP180;40640;48.130;11.356;2022-11-23T19:23:18;94491.00;;;7.90
54746;BMP180;40640;48.130;11.356;2022-11-23T19:27:22;94497.00;;;8.00
54746;BMP180;40640;48.130;11.356;2022-11-23T19:31:28;94507.00;;;8.20
54746;BMP180;40640;48.130;11.356;2022-11-23T19:35:31;94526.00;;;8.40
54746;BMP180;40640;48.130;11.356;2022-11-23T19:39:34;94524.00;;;8.40
54746;BMP180;40640;48.130;11.356;2022-11-23T19:43:37;94534.00;;;8.40
54746;BMP180;40640;48.130;11.356;2022-11-23T19:47:43;94531.00;;;8.40
54746;BMP180;40640;48.130;11.356;2022-11-23T19:51:46;94553.00;;;8.60
54746;BMP180;40640;48.130;11.356;2022-11-23T19:55:51;94565.00;;;8.50
54746;BMP180;40640;48.130;11.356;2022-11-23T19:59:54;94567.00;;;8.50
54746;BMP180;40640;48.130;11.356;2022-11-23T20:04:00;94574.00;;;8.50
54746;BMP180;40640;48.130;11.356;2022-11-23T20:08:09;94582.00;;;8.50
54746;BMP180;40640;48.130;11.356;2022-11-23T20:12:12;94590.00;;;8.40
54746;BMP180;40640;48.130;11.356;2022-11-23T20:16:17;94587.00;;;8.40
54746;BMP180;40640;48.130;11.356;2022-11-23T20:20:21;94605.00;;;8.90
54746;BMP180;40640;48.130;11.356;2022-11-23T20:24:24;94611.00;;;8.70
54746;BMP180;40640;48.130;11.356;2022-11-23T20:28:27;94626.00;;;8.90
54746;BMP180;40640;48.130;11.356;2022-11-23T20:32:30;94634.00;;;9.10
54746;BMP180;40640;48.130;11.356;2022-11-23T20:36:37;94633.00;;;9.20
54746;BMP180;40640;48.130;11.356;2022-11-23T20:40:40;94650.00;;;9.30
54746;BMP180;40640;48.130;11.356;2022-11-23T20:44:42;94648.00;;;8.70
54746;BMP180;40640;48.130;11.356;2022-11-23T20:48:45;94670.00;;;8.50
54746;BMP180;40640;48.130;11.356;2022-11-23T20:52:50;94663.00;;;8.50
54746;BMP180;40640;48.130;11.356;2022-11-23T20:56:53;94674.00;;;8.50
54746;BMP180;40640;48.130;11.356;2022-11-23T21:00:56;94670.00;;;8.40
54746;BMP180;40640;48.130;11.356;2022-11-23T21:05:04;94663.00;;;8.50
54746;BMP180;40640;48.130;11.356;2022-11-23T21:09:08;94663.00;;;8.50
54746;BMP180;40640;48.130;11.356;2022-11-23T21:13:13;94666.00;;;8.20
54746;BMP180;40640;48.130;11.356;2022-11-23T21:17:49;94667.00;;;8.50
54746;BMP180;40640;48.130;11.356;2022-11-23T21:21:52;94670.00;;;8.30
54746;BMP180;40640;48.130;11.356;2022-11-23T21:26:01;94672.00;;;8.70
54746;BMP180;40640;48.130;11.356;2022-11-23T21:30:05;94672.00;;;8.70
54746;BMP180;40640;48.130;11.356;2022-11-23T21:34:09;94677.00;;;8.60
54746;BMP180;40640;48.130;11.356;2022-11-23T21:38:18;94676.00;;;8.80
54746;BMP180;40640;48.130;11.356;2022-11-23T21:42:25;94691.00;;;8.40
54746;BMP180;40640;48.130;11.356;2022-11-23T21:46:28;94684.00;;;8.20
54746;BMP180;40640;48.130;11.356;2022-11-23T21:50:31;94690.00;;;8.60
54746;BMP180;40640;48.130;11.356;2022-11-23T21:54:35;94676.00;;;8.60
54746;BMP180;40640;48.130;11.356;2022-11-23T21:58:40;94697.00;;;8.70
54746;BMP180;40640;48.130;11.356;2022-11-23T22:02:43;94704.00;;;8.70
54746;BMP180;40640;48.130;11.356;2022-11-23T22:06:45;94692.00;;;8.60
54746;BMP180;40640;48.130;11.356;2022-11-23T22:10:48;94704.00;;;8.70
54746;BMP180;40640;48.130;11.356;2022-11-23T22:14:52;94705.00;;;8.80
54746;BMP180;40640;48.130;11.356;2022-11-23T22:18:55;94708.00;;;9.10
54746;BMP180;40640;48.130;11.356;2022-11-23T22:22:58;94710.00;;;9.10
54746;BMP180;40640;48.130;11.356;2022-11-23T22:27:01;94707.00;;;8.90
54746;BMP180;40640;48.130;11.356;2022-11-23T22:31:06;94710.00;;;9.10
54746;BMP180;40640;48.130;11.356;2022-11-23T22:35:10;94726.00;;;9.10
54746;BMP180;40640;48.130;11.356;2022-11-23T22:39:15;94725.00;;;9.00
54746;BMP180;40640;48.130;11.356;2022-11-23T22:43:18;94734.00;;;9.20
54746;BMP180;40640;48.130;11.356;2022-11-23T22:47:22;94747.00;;;9.10
54746;BMP180;40640;48.130;11.356;2022-11-23T22:51:26;94747.00;;;9.20
54746;BMP180;40640;48.130;11.356;2022-11-23T22:55:30;94755.00;;;9.20
54746;BMP180;40640;48.130;11.356;2022-11-23T22:59:32;94773.00;;;9.20
54746;BMP180;40640;48.130;11.356;2022-11-23T23:03:37;94779.00;;;9.50
54746;BMP180;40640;48.130;11.356;2022-11-23T23:07:40;94786.00;;;9.40
54746;BMP180;40640;48.130;11.356;2022-11-23T23:11:42;94794.00;;;9.40
54746;BMP180;40640;48.130;11.356;2022-11-23T23:15:46;94805.00;;;9.30
54746;BMP180;40640;48.130;11.356;2022-11-23T23:19:50;94800.00;;;9.20
54746;BMP180;40640;48.130;11.356;2022-11-23T23:23:54;94809.00;;;9.00
54746;BMP180;40640;48.130;11.356;2022-11-23T23:27:58;94817.00;;;9.30
54746;BMP180;40640;48.130;11.356;2022-11-23T23:32:00;94821.00;;;9.30
54746;BMP180;40640;48.130;11.356;2022-11-23T23:36:07;94817.00;;;9.30